sensor_id;sensor_type;location;lat;lon;timestamp;P1;durP1;ratioP1;P2;durP2;ratioP2
62071;SDS011;48031;48.542;13.232;2023-09-19T00:03:38;1.60;;;1.50;;
62071;SDS011;48031;48.542;13.232;2023-09-19T00:07:41;2.75;;;1.40;;
62071;SDS011;48031;48.542;13.232;2023-09-19T00:11:44;2.17;;;1.90;;
62071;SDS011;48031;48.542;13.232;2023-09-19T00:15:47;1.88;;;1.50;;
62071;SDS011;48031;48.542;13.232;2023-09-19T00:19:52;1.88;;;1.40;;
62071;SDS011;48031;48.542;13.232;2023-09-19T00:23:54;2.60;;;1.10;;
62071;SDS011;48031;48.542;13.232;2023-09-19T00:27:56;4.38;;;1.60;;
62071;SDS011;48031;48.542;13.232;2023-09-19T00:32:00;2.25;;;1.02;;
62071;SDS011;48031;48.542;13.232;2023-09-19T00:36:05;2.40;;;1.80;;
62071;SDS011;48031;48.542;13.232;2023-09-19T00:40:08;2.70;;;1.48;;
62071;SDS011;48031;48.542;13.232;2023-09-19T00:44:17;2.00;;;1.40;;
62071;SDS011;48031;48.542;13.232;2023-09-19T00:48:21;1.83;;;1.20;;
62071;SDS011;48031;48.542;13.232;2023-09-19T00:52:25;1.67;;;1.27;;
62071;SDS011;48031;48.542;13.232;2023-09-19T00:56:28;1.48;;;1.20;;
62071;SDS011;48031;48.542;13.232;2023-09-19T01:00:31;1.58;;;1.00;;
62071;SDS011;48031;48.542;13.232;2023-09-19T01:04:35;1.15;;;1.05;;
62071;SDS011;48031;48.542;13.232;2023-09-19T01:08:38;1.38;;;1.10;;
62071;SDS011;48031;48.542;13.232;2023-09-19T01:17:03;1.00;;;0.90;;
62071;SDS011;48031;48.542;13.232;2023-09-19T01:29:43;1.10;;;1.00;;
62071;SDS011;48031;48.542;13.232;2023-09-19T01:38:01;1.52;;;1.00;;
62071;SDS011;48031;48.542;13.232;2023-09-19T01:54:31;4.32;;;1.00;;
62071;SDS011;48031;48.542;13.232;2023-09-19T01:58:46;1.63;;;0.98;;
62071;SDS011;48031;48.542;13.232;2023-09-19T02:02:52;1.17;;;0.82;;
62071;SDS011;48031;48.542;13.232;2023-09-19T02:06:57;1.38;;;1.00;;
62071;SDS011;48031;48.542;13.232;2023-09-19T02:11:00;1.20;;;0.80;;
62071;SDS011;48031;48.542;13.232;2023-09-19T02:15:03;1.02;;;0.75;;
62071;SDS011;48031;48.542;13.232;2023-09-19T02:19:09;1.10;;;0.85;;
62071;SDS011;48031;48.542;13.232;2023-09-19T02:23:11;1.05;;;0.95;;
62071;SDS011;48031;48.542;13.232;2023-09-19T02:27:14;0.82;;;0.80;;
62071;SDS011;48031;48.542;13.232;2023-09-19T02:31:17;1.00;;;1.00;;
62071;SDS011;48031;48.542;13.232;2023-09-19T02:35:20;1.70;;;1.10;;
62071;SDS011;48031;48.542;13.232;2023-09-19T02:39:22;0.85;;;0.80;;
62071;SDS011;48031;48.542;13.232;2023-09-19T02:43:25;2.78;;;0.90;;
62071;SDS011;48031;48.542;13.232;2023-09-19T02:47:28;3.28;;;1.73;;
62071;SDS011;48031;48.542;13.232;2023-09-19T02:51:32;2.30;;;1.00;;
62071;SDS011;48031;48.542;13.232;2023-09-19T02:55:34;1.25;;;0.85;;
62071;SDS011;48031;48.542;13.232;2023-09-19T02:59:37;2.22;;;0.80;;
62071;SDS011;48031;48.542;13.232;2023-09-19T03:03:39;0.85;;;0.80;;
62071;SDS011;48031;48.542;13.232;2023-09-19T03:07:42;1.23;;;0.80;;
62071;SDS011;48031;48.542;13.232;2023-09-19T03:11:55;0.70;;;0.70;;
62071;SDS011;48031;48.542;13.232;2023-09-19T03:15:59;1.83;;;0.82;;
62071;SDS011;48031;48.542;13.232;2023-09-19T03:20:03;1.13;;;0.90;;
62071;SDS011;48031;48.542;13.232;2023-09-19T03:24:06;4.18;;;1.10;;
62071;SDS011;48031;48.542;13.232;2023-09-19T03:28:08;1.33;;;1.00;;
62071;SDS011;48031;48.542;13.232;2023-09-19T03:32:12;2.08;;;0.77;;
62071;SDS011;48031;48.542;13.232;2023-09-19T03:36:15;0.65;;;0.63;;
62071;SDS011;48031;48.542;13.232;2023-09-19T03:40:18;1.70;;;0.98;;
62071;SDS011;48031;48.542;13.232;2023-09-19T03:44:25;1.17;;;0.80;;
62071;SDS011;48031;48.542;13.232;2023-09-19T03:48:27;0.95;;;0.90;;
62071;SDS011;48031;48.542;13.232;2023-09-19T03:52:31;0.65;;;0.65;;
62071;SDS011;48031;48.542;13.232;2023-09-19T03:56:34;1.95;;;1.15;;
62071;SDS011;48031;48.542;13.232;2023-09-19T04:00:37;2.20;;;1.05;;
62071;SDS011;48031;48.542;13.232;2023-09-19T04:04:40;1.27;;;0.90;;
62071;SDS011;48031;48.542;13.232;2023-09-19T04:08:44;1.17;;;0.95;;
62071;SDS011;48031;48.542;13.232;2023-09-19T04:12:52;1.17;;;0.87;;
62071;SDS011;48031;48.542;13.232;2023-09-19T04:16:56;0.77;;;0.75;;
62071;SDS011;48031;48.542;13.232;2023-09-19T04:20:59;1.13;;;0.77;;
62071;SDS011;48031;48.542;13.232;2023-09-19T04:25:06;1.63;;;1.10;;
62071;SDS011;48031;48.542;13.232;2023-09-19T04:29:09;2.47;;;1.02;;
62071;SDS011;48031;48.542;13.232;2023-09-19T04:33:13;1.35;;;1.00;;
62071;SDS011;48031;48.542;13.232;2023-09-19T04:37:16;1.00;;;0.90;;
62071;SDS011;48031;48.542;13.232;2023-09-19T04:41:20;2.72;;;1.10;;
62071;SDS011;48031;48.542;13.232;2023-09-19T04:45:24;2.92;;;1.30;;
62071;SDS011;48031;48.542;13.232;2023-09-19T04:49:29;1.38;;;1.20;;
62071;SDS011;48031;48.542;13.232;2023-09-19T04:53:31;4.75;;;2.03;;
62071;SDS011;48031;48.542;13.232;2023-09-19T04:57:34;4.28;;;1.70;;
62071;SDS011;48031;48.542;13.232;2023-09-19T05:01:38;5.15;;;1.33;;
62071;SDS011;48031;48.542;13.232;2023-09-19T05:05:40;1.52;;;1.15;;
62071;SDS011;48031;48.542;13.232;2023-09-19T05:09:43;1.17;;;0.95;;
62071;SDS011;48031;48.542;13.232;2023-09-19T05:13:45;0.90;;;0.80;;
62071;SDS011;48031;48.542;13.232;2023-09-19T05:17:48;0.93;;;0.70;;
62071;SDS011;48031;48.542;13.232;2023-09-19T05:21:56;0.70;;;0.65;;
62071;SDS011;48031;48.542;13.232;2023-09-19T05:25:58;1.25;;;0.85;;
62071;SDS011;48031;48.542;13.232;2023-09-19T05:30:01;1.05;;;0.98;;
62071;SDS011;48031;48.542;13.232;2023-09-19T05:34:05;3.83;;;1.50;;
62071;SDS011;48031;48.542;13.232;2023-09-19T05:38:08;1.80;;;1.30;;
62071;SDS011;48031;48.542;13.232;2023-09-19T05:42:11;1.77;;;1.23;;
62071;SDS011;48031;48.542;13.232;2023-09-19T05:46:13;2.08;;;1.20;;
62071;SDS011;48031;48.542;13.232;2023-09-19T05:50:17;1.63;;;1.30;;
62071;SDS011;48031;48.542;13.232;2023-09-19T05:54:20;2.00;;;1.30;;
62071;SDS011;48031;48.542;13.232;2023-09-19T05:58:22;1.35;;;1.20;;
62071;SDS011;48031;48.542;13.232;2023-09-19T06:02:25;4.07;;;1.40;;
62071;SDS011;48031;48.542;13.232;2023-09-19T06:06:31;1.87;;;1.30;;
62071;SDS011;48031;48.542;13.232;2023-09-19T06:10:36;1.55;;;1.23;;
62071;SDS011;48031;48.542;13.232;2023-09-19T06:14:39;1.77;;;1.50;;
62071;SDS011;48031;48.542;13.232;2023-09-19T06:18:43;1.63;;;1.17;;
62071;SDS011;48031;48.542;13.232;2023-09-19T06:22:47;1.83;;;1.30;;
62071;SDS011;48031;48.542;13.232;2023-09-19T06:26:49;1.55;;;1.20;;
62071;SDS011;48031;48.542;13.232;2023-09-19T06:30:51;1.77;;;1.40;;
62071;SDS011;48031;48.542;13.232;2023-09-19T06:34:53;1.60;;;1.15;;
62071;SDS011;48031;48.542;13.232;2023-09-19T06:38:57;1.67;;;1.20;;
62071;SDS011;48031;48.542;13.232;2023-09-19T06:42:59;1.35;;;1.13;;
62071;SDS011;48031;48.542;13.232;2023-09-19T06:47:03;2.03;;;1.20;;
62071;SDS011;48031;48.542;13.232;2023-09-19T06:51:06;3.13;;;1.50;;
62071;SDS011;48031;48.542;13.232;2023-09-19T06:55:09;1.98;;;1.33;;
62071;SDS011;48031;48.542;13.232;2023-09-19T06:59:13;1.67;;;1.20;;
62071;SDS011;48031;48.542;13.232;2023-09-19T07:03:16;2.88;;;1.30;;
62071;SDS011;48031;48.542;13.232;2023-09-19T07:07:24;2.42;;;1.20;;
62071;SDS011;48031;48.542;13.232;2023-09-19T07:11:26;1.17;;;1.08;;
62071;SDS011;48031;48.542;13.232;2023-09-19T07:15:29;2.38;;;1.30;;
62071;SDS011;48031;48.542;13.232;2023-09-19T07:19:35;1.20;;;1.10;;
62071;SDS011;48031;48.542;13.232;2023-09-19T07:23:37;1.40;;;1.30;;
62071;SDS011;48031;48.542;13.232;2023-09-19T07:27:41;2.03;;;1.27;;
62071;SDS011;48031;48.542;13.232;2023-09-19T07:31:44;3.75;;;1.23;;
62071;SDS011;48031;48.542;13.232;2023-09-19T07:35:47;1.30;;;1.20;;
62071;SDS011;48031;48.542;13.232;2023-09-19T07:39:49;1.52;;;1.23;;
62071;SDS011;48031;48.542;13.232;2023-09-19T07:43:52;1.58;;;1.20;;
62071;SDS011;48031;48.542;13.232;2023-09-19T07:47:54;2.05;;;1.00;;
62071;SDS011;48031;48.542;13.232;2023-09-19T07:51:57;1.77;;;1.38;;
62071;SDS011;48031;48.542;13.232;2023-09-19T07:56:07;2.03;;;1.33;;
62071;SDS011;48031;48.542;13.232;2023-09-19T08:00:12;2.25;;;1.23;;
62071;SDS011;48031;48.542;13.232;2023-09-19T08:04:15;1.30;;;1.20;;
62071;SDS011;48031;48.542;13.232;2023-09-19T08:08:19;1.30;;;1.00;;
62071;SDS011;48031;48.542;13.232;2023-09-19T08:12:23;1.65;;;1.10;;
62071;SDS011;48031;48.542;13.232;2023-09-19T08:16:25;1.60;;;1.10;;
62071;SDS011;48031;48.542;13.232;2023-09-19T08:20:27;2.05;;;1.25;;
62071;SDS011;48031;48.542;13.232;2023-09-19T08:24:30;1.45;;;1.27;;
62071;SDS011;48031;48.542;13.232;2023-09-19T08:28:32;3.10;;;1.48;;
62071;SDS011;48031;48.542;13.232;2023-09-19T08:32:35;1.67;;;1.30;;
62071;SDS011;48031;48.542;13.232;2023-09-19T08:36:38;2.88;;;1.30;;
62071;SDS011;48031;48.542;13.232;2023-09-19T08:40:40;1.55;;;1.15;;
62071;SDS011;48031;48.542;13.232;2023-09-19T08:44:46;2.42;;;1.20;;
62071;SDS011;48031;48.542;13.232;2023-09-19T08:48:54;1.38;;;1.00;;
62071;SDS011;48031;48.542;13.232;2023-09-19T08:53:08;1.90;;;0.93;;
62071;SDS011;48031;48.542;13.232;2023-09-19T08:57:13;1.55;;;1.13;;
62071;SDS011;48031;48.542;13.232;2023-09-19T09:01:23;1.63;;;1.10;;
62071;SDS011;48031;48.542;13.232;2023-09-19T09:05:27;1.55;;;0.95;;
62071;SDS011;48031;48.542;13.232;2023-09-19T09:09:30;3.38;;;0.90;;
62071;SDS011;48031;48.542;13.232;2023-09-19T09:13:32;1.55;;;0.98;;
62071;SDS011;48031;48.542;13.232;2023-09-19T09:17:36;1.70;;;1.00;;
62071;SDS011;48031;48.542;13.232;2023-09-19T09:21:41;1.02;;;0.93;;
62071;SDS011;48031;48.542;13.232;2023-09-19T09:25:52;1.63;;;0.93;;
62071;SDS011;48031;48.542;13.232;2023-09-19T09:29:58;1.17;;;0.80;;
62071;SDS011;48031;48.542;13.232;2023-09-19T09:34:04;0.77;;;0.77;;
62071;SDS011;48031;48.542;13.232;2023-09-19T09:38:06;1.48;;;0.90;;
62071;SDS011;48031;48.542;13.232;2023-09-19T09:42:22;2.33;;;0.80;;
62071;SDS011;48031;48.542;13.232;2023-09-19T09:46:33;1.77;;;0.80;;
62071;SDS011;48031;48.542;13.232;2023-09-19T09:51:00;1.05;;;0.90;;
62071;SDS011;48031;48.542;13.232;2023-09-19T09:55:05;0.82;;;0.82;;
62071;SDS011;48031;48.542;13.232;2023-09-19T09:59:08;1.20;;;1.00;;
62071;SDS011;48031;48.542;13.232;2023-09-19T10:03:19;1.38;;;0.80;;
62071;SDS011;48031;48.542;13.232;2023-09-19T10:07:29;1.38;;;1.02;;
62071;SDS011;48031;48.542;13.232;2023-09-19T10:12:03;1.27;;;0.70;;
62071;SDS011;48031;48.542;13.232;2023-09-19T10:16:09;1.15;;;0.80;;
62071;SDS011;48031;48.542;13.232;2023-09-19T10:20:14;2.03;;;0.80;;
62071;SDS011;48031;48.542;13.232;2023-09-19T10:24:37;0.95;;;0.88;;
62071;SDS011;48031;48.542;13.232;2023-09-19T10:28:57;1.13;;;0.90;;
62071;SDS011;48031;48.542;13.232;2023-09-19T10:33:04;1.70;;;0.90;;
62071;SDS011;48031;48.542;13.232;2023-09-19T10:37:11;1.35;;;0.70;;
62071;SDS011;48031;48.542;13.232;2023-09-19T10:41:15;0.80;;;0.80;;
62071;SDS011;48031;48.542;13.232;2023-09-19T10:45:17;1.60;;;0.80;;
62071;SDS011;48031;48.542;13.232;2023-09-19T10:49:20;2.50;;;0.88;;
62071;SDS011;48031;48.542;13.232;2023-09-19T10:53:23;0.80;;;0.80;;
62071;SDS011;48031;48.542;13.232;2023-09-19T10:57:25;0.90;;;0.80;;
62071;SDS011;48031;48.542;13.232;2023-09-19T11:01:43;1.92;;;0.82;;
62071;SDS011;48031;48.542;13.232;2023-09-19T11:06:01;1.05;;;0.80;;
62071;SDS011;48031;48.542;13.232;2023-09-19T11:10:07;0.70;;;0.60;;
62071;SDS011;48031;48.542;13.232;2023-09-19T11:14:51;0.60;;;0.60;;
62071;SDS011;48031;48.542;13.232;2023-09-19T11:18:55;0.80;;;0.80;;
62071;SDS011;48031;48.542;13.232;2023-09-19T11:27:19;1.02;;;0.60;;
62071;SDS011;48031;48.542;13.232;2023-09-19T11:31:42;0.70;;;0.70;;
62071;SDS011;48031;48.542;13.232;2023-09-19T11:40:17;1.00;;;0.80;;
62071;SDS011;48031;48.542;13.232;2023-09-19T11:48:28;1.67;;;0.85;;
62071;SDS011;48031;48.542;13.232;2023-09-19T11:52:31;2.58;;;0.60;;
62071;SDS011;48031;48.542;13.232;2023-09-19T11:56:41;2.05;;;0.70;;
62071;SDS011;48031;48.542;13.232;2023-09-19T12:00:47;2.10;;;0.90;;
62071;SDS011;48031;48.542;13.232;2023-09-19T12:04:56;1.35;;;0.70;;
62071;SDS011;48031;48.542;13.232;2023-09-19T12:08:58;0.50;;;0.50;;
62071;SDS011;48031;48.542;13.232;2023-09-19T12:13:02;0.60;;;0.55;;
62071;SDS011;48031;48.542;13.232;2023-09-19T12:17:04;0.70;;;0.50;;
62071;SDS011;48031;48.542;13.232;2023-09-19T12:25:43;0.52;;;0.50;;
62071;SDS011;48031;48.542;13.232;2023-09-19T12:29:49;1.02;;;0.70;;
62071;SDS011;48031;48.542;13.232;2023-09-19T12:33:54;0.52;;;0.52;;
62071;SDS011;48031;48.542;13.232;2023-09-19T12:37:57;0.97;;;0.50;;
62071;SDS011;48031;48.542;13.232;2023-09-19T12:42:00;2.67;;;0.70;;
62071;SDS011;48031;48.542;13.232;2023-09-19T12:46:05;0.70;;;0.70;;
62071;SDS011;48031;48.542;13.232;2023-09-19T12:50:16;1.13;;;0.82;;
62071;SDS011;48031;48.542;13.232;2023-09-19T12:54:20;1.30;;;1.20;;
62071;SDS011;48031;48.542;13.232;2023-09-19T12:58:23;0.82;;;0.63;;
62071;SDS011;48031;48.542;13.232;2023-09-19T13:02:25;0.68;;;0.65;;
62071;SDS011;48031;48.542;13.232;2023-09-19T13:06:36;1.08;;;0.90;;
62071;SDS011;48031;48.542;13.232;2023-09-19T13:11:04;0.73;;;0.73;;
62071;SDS011;48031;48.542;13.232;2023-09-19T13:15:14;0.88;;;0.88;;
62071;SDS011;48031;48.542;13.232;2023-09-19T13:19:34;0.50;;;0.50;;
62071;SDS011;48031;48.542;13.232;2023-09-19T13:23:42;0.63;;;0.60;;
62071;SDS011;48031;48.542;13.232;2023-09-19T13:27:46;0.65;;;0.60;;
62071;SDS011;48031;48.542;13.232;2023-09-19T13:31:56;1.17;;;0.60;;
62071;SDS011;48031;48.542;13.232;2023-09-19T13:35:59;0.68;;;0.68;;
62071;SDS011;48031;48.542;13.232;2023-09-19T13:40:00;0.80;;;0.80;;
62071;SDS011;48031;48.542;13.232;2023-09-19T13:44:03;0.77;;;0.73;;
62071;SDS011;48031;48.542;13.232;2023-09-19T13:48:07;0.65;;;0.60;;
62071;SDS011;48031;48.542;13.232;2023-09-19T13:52:09;0.90;;;0.90;;
62071;SDS011;48031;48.542;13.232;2023-09-19T13:56:11;2.63;;;0.80;;
62071;SDS011;48031;48.542;13.232;2023-09-19T14:00:13;0.65;;;0.65;;
62071;SDS011;48031;48.542;13.232;2023-09-19T14:04:18;1.55;;;0.88;;
62071;SDS011;48031;48.542;13.232;2023-09-19T14:08:21;2.78;;;0.80;;
62071;SDS011;48031;48.542;13.232;2023-09-19T14:12:25;0.80;;;0.80;;
62071;SDS011;48031;48.542;13.232;2023-09-19T14:16:27;0.80;;;0.80;;
62071;SDS011;48031;48.542;13.232;2023-09-19T14:20:32;0.93;;;0.90;;
62071;SDS011;48031;48.542;13.232;2023-09-19T14:24:34;1.27;;;0.90;;
62071;SDS011;48031;48.542;13.232;2023-09-19T14:28:36;0.90;;;0.90;;
62071;SDS011;48031;48.542;13.232;2023-09-19T14:32:40;1.10;;;1.10;;
62071;SDS011;48031;48.542;13.232;2023-09-19T14:36:43;1.00;;;1.00;;
62071;SDS011;48031;48.542;13.232;2023-09-19T14:40:46;2.30;;;1.33;;
62071;SDS011;48031;48.542;13.232;2023-09-19T14:44:48;2.22;;;1.80;;
62071;SDS011;48031;48.542;13.232;2023-09-19T14:48:53;2.15;;;2.05;;
62071;SDS011;48031;48.542;13.232;2023-09-19T14:52:55;2.20;;;2.10;;
62071;SDS011;48031;48.542;13.232;2023-09-19T14:56:57;2.20;;;2.10;;
62071;SDS011;48031;48.542;13.232;2023-09-19T15:01:07;2.10;;;2.00;;
62071;SDS011;48031;48.542;13.232;2023-09-19T15:05:12;2.20;;;2.10;;
62071;SDS011;48031;48.542;13.232;2023-09-19T15:09:16;2.58;;;2.47;;
62071;SDS011;48031;48.542;13.232;2023-09-19T15:13:20;2.17;;;2.08;;
62071;SDS011;48031;48.542;13.232;2023-09-19T15:17:22;2.78;;;2.58;;
62071;SDS011;48031;48.542;13.232;2023-09-19T15:21:26;3.47;;;3.30;;
62071;SDS011;48031;48.542;13.232;2023-09-19T15:25:28;3.42;;;3.22;;
62071;SDS011;48031;48.542;13.232;2023-09-19T15:29:30;3.45;;;3.30;;
62071;SDS011;48031;48.542;13.232;2023-09-19T15:33:33;3.80;;;3.60;;
62071;SDS011;48031;48.542;13.232;2023-09-19T15:37:36;3.10;;;3.00;;
62071;SDS011;48031;48.542;13.232;2023-09-19T15:41:38;3.17;;;2.90;;
62071;SDS011;48031;48.542;13.232;2023-09-19T15:45:42;2.70;;;2.60;;
62071;SDS011;48031;48.542;13.232;2023-09-19T15:49:45;2.97;;;2.50;;
62071;SDS011;48031;48.542;13.232;2023-09-19T15:53:48;2.30;;;2.20;;
62071;SDS011;48031;48.542;13.232;2023-09-19T15:57:51;2.10;;;1.90;;
62071;SDS011;48031;48.542;13.232;2023-09-19T16:01:54;2.20;;;2.10;;
62071;SDS011;48031;48.542;13.232;2023-09-19T16:05:56;2.10;;;2.00;;
62071;SDS011;48031;48.542;13.232;2023-09-19T16:09:58;2.10;;;2.00;;
62071;SDS011;48031;48.542;13.232;2023-09-19T16:14:01;1.80;;;1.70;;
62071;SDS011;48031;48.542;13.232;2023-09-19T16:18:04;1.50;;;1.50;;
62071;SDS011;48031;48.542;13.232;2023-09-19T16:22:06;10.52;;;9.93;;
62071;SDS011;48031;48.542;13.232;2023-09-19T16:26:08;12.55;;;11.85;;
62071;SDS011;48031;48.542;13.232;2023-09-19T16:30:10;4.30;;;4.10;;
62071;SDS011;48031;48.542;13.232;2023-09-19T16:34:14;2.10;;;2.00;;
62071;SDS011;48031;48.542;13.232;2023-09-19T16:38:17;2.33;;;1.98;;
62071;SDS011;48031;48.542;13.232;2023-09-19T16:42:19;1.50;;;1.40;;
62071;SDS011;48031;48.542;13.232;2023-09-19T16:46:23;1.00;;;1.00;;
62071;SDS011;48031;48.542;13.232;2023-09-19T16:50:25;0.70;;;0.70;;
62071;SDS011;48031;48.542;13.232;2023-09-19T16:54:28;1.67;;;0.90;;
62071;SDS011;48031;48.542;13.232;2023-09-19T16:58:30;1.20;;;1.00;;
62071;SDS011;48031;48.542;13.232;2023-09-19T17:02:34;0.65;;;0.65;;
62071;SDS011;48031;48.542;13.232;2023-09-19T17:06:38;0.88;;;0.60;;
62071;SDS011;48031;48.542;13.232;2023-09-19T17:10:41;1.58;;;0.80;;
62071;SDS011;48031;48.542;13.232;2023-09-19T17:14:46;0.60;;;0.60;;
62071;SDS011;48031;48.542;13.232;2023-09-19T17:18:51;0.90;;;0.80;;
62071;SDS011;48031;48.542;13.232;2023-09-19T17:26:57;3.30;;;0.80;;
62071;SDS011;48031;48.542;13.232;2023-09-19T17:31:00;0.80;;;0.80;;
62071;SDS011;48031;48.542;13.232;2023-09-19T17:35:11;1.60;;;0.80;;
62071;SDS011;48031;48.542;13.232;2023-09-19T17:39:16;1.38;;;0.90;;
62071;SDS011;48031;48.542;13.232;2023-09-19T17:43:18;0.95;;;0.70;;
62071;SDS011;48031;48.542;13.232;2023-09-19T17:47:20;1.10;;;0.80;;
62071;SDS011;48031;48.542;13.232;2023-09-19T17:51:23;2.45;;;1.35;;
62071;SDS011;48031;48.542;13.232;2023-09-19T17:55:26;1.50;;;1.40;;
62071;SDS011;48031;48.542;13.232;2023-09-19T17:59:28;2.45;;;1.67;;
62071;SDS011;48031;48.542;13.232;2023-09-19T18:03:31;1.65;;;1.40;;
62071;SDS011;48031;48.542;13.232;2023-09-19T18:07:33;1.45;;;1.35;;
62071;SDS011;48031;48.542;13.232;2023-09-19T18:11:35;2.22;;;1.40;;
62071;SDS011;48031;48.542;13.232;2023-09-19T18:15:37;2.17;;;1.30;;
62071;SDS011;48031;48.542;13.232;2023-09-19T18:19:39;2.22;;;1.30;;
62071;SDS011;48031;48.542;13.232;2023-09-19T18:23:41;1.30;;;1.00;;
62071;SDS011;48031;48.542;13.232;2023-09-19T18:27:43;1.85;;;1.20;;
62071;SDS011;48031;48.542;13.232;2023-09-19T18:31:46;1.35;;;1.20;;
62071;SDS011;48031;48.542;13.232;2023-09-19T18:35:49;1.58;;;1.30;;
62071;SDS011;48031;48.542;13.232;2023-09-19T18:39:50;1.40;;;1.00;;
62071;SDS011;48031;48.542;13.232;2023-09-19T18:43:52;0.82;;;0.82;;
62071;SDS011;48031;48.542;13.232;2023-09-19T18:47:54;1.27;;;1.17;;
62071;SDS011;48031;48.542;13.232;2023-09-19T18:51:56;1.17;;;0.98;;
62071;SDS011;48031;48.542;13.232;2023-09-19T18:56:03;1.20;;;1.10;;
62071;SDS011;48031;48.542;13.232;2023-09-19T19:00:09;2.15;;;1.15;;
62071;SDS011;48031;48.542;13.232;2023-09-19T19:04:11;3.22;;;1.30;;
62071;SDS011;48031;48.542;13.232;2023-09-19T19:08:15;1.02;;;1.00;;
62071;SDS011;48031;48.542;13.232;2023-09-19T19:12:16;1.02;;;0.85;;
62071;SDS011;48031;48.542;13.232;2023-09-19T19:16:18;0.98;;;0.90;;
62071;SDS011;48031;48.542;13.232;2023-09-19T19:20:22;0.95;;;0.90;;
62071;SDS011;48031;48.542;13.232;2023-09-19T19:24:26;1.17;;;1.05;;
62071;SDS011;48031;48.542;13.232;2023-09-19T19:28:32;2.92;;;1.35;;
62071;SDS011;48031;48.542;13.232;2023-09-19T19:32:41;1.58;;;1.20;;
62071;SDS011;48031;48.542;13.232;2023-09-19T19:36:44;1.30;;;1.20;;
62071;SDS011;48031;48.542;13.232;2023-09-19T19:40:56;1.48;;;1.20;;
62071;SDS011;48031;48.542;13.232;2023-09-19T19:45:00;2.25;;;1.10;;
62071;SDS011;48031;48.542;13.232;2023-09-19T19:49:02;1.17;;;1.10;;
62071;SDS011;48031;48.542;13.232;2023-09-19T19:53:05;2.72;;;1.60;;
62071;SDS011;48031;48.542;13.232;2023-09-19T19:57:09;1.90;;;1.40;;
62071;SDS011;48031;48.542;13.232;2023-09-19T20:01:12;1.50;;;1.35;;
62071;SDS011;48031;48.542;13.232;2023-09-19T20:05:17;2.17;;;1.33;;
62071;SDS011;48031;48.542;13.232;2023-09-19T20:09:20;3.95;;;1.60;;
62071;SDS011;48031;48.542;13.232;2023-09-19T20:13:22;1.27;;;1.17;;
62071;SDS011;48031;48.542;13.232;2023-09-19T20:17:24;1.88;;;1.67;;
62071;SDS011;48031;48.542;13.232;2023-09-19T20:21:27;1.10;;;1.02;;
62071;SDS011;48031;48.542;13.232;2023-09-19T20:25:33;1.58;;;1.48;;
62071;SDS011;48031;48.542;13.232;2023-09-19T20:29:35;1.58;;;1.20;;
62071;SDS011;48031;48.542;13.232;2023-09-19T20:33:39;2.08;;;1.88;;
62071;SDS011;48031;48.542;13.232;2023-09-19T20:37:42;1.58;;;1.30;;
62071;SDS011;48031;48.542;13.232;2023-09-19T20:41:45;6.40;;;1.90;;
62071;SDS011;48031;48.542;13.232;2023-09-19T20:45:48;3.28;;;1.60;;
62071;SDS011;48031;48.542;13.232;2023-09-19T20:49:51;1.70;;;1.60;;
62071;SDS011;48031;48.542;13.232;2023-09-19T20:53:53;1.63;;;1.52;;
62071;SDS011;48031;48.542;13.232;2023-09-19T20:57:57;1.50;;;1.40;;
62071;SDS011;48031;48.542;13.232;2023-09-19T21:02:01;2.33;;;2.00;;
62071;SDS011;48031;48.542;13.232;2023-09-19T21:06:07;1.65;;;1.55;;
62071;SDS011;48031;48.542;13.232;2023-09-19T21:10:12;1.65;;;1.35;;
62071;SDS011;48031;48.542;13.232;2023-09-19T21:14:16;4.90;;;1.85;;
62071;SDS011;48031;48.542;13.232;2023-09-19T21:18:18;2.00;;;1.80;;
62071;SDS011;48031;48.542;13.232;2023-09-19T21:22:21;3.55;;;1.80;;
62071;SDS011;48031;48.542;13.232;2023-09-19T21:26:23;1.85;;;1.75;;
62071;SDS011;48031;48.542;13.232;2023-09-19T21:30:25;1.75;;;1.52;;
62071;SDS011;48031;48.542;13.232;2023-09-19T21:34:28;1.80;;;1.52;;
62071;SDS011;48031;48.542;13.232;2023-09-19T21:38:31;2.17;;;1.98;;
62071;SDS011;48031;48.542;13.232;2023-09-19T21:42:33;4.30;;;1.98;;
62071;SDS011;48031;48.542;13.232;2023-09-19T21:46:35;2.35;;;2.15;;
62071;SDS011;48031;48.542;13.232;2023-09-19T21:50:39;1.75;;;1.65;;
62071;SDS011;48031;48.542;13.232;2023-09-19T21:54:40;2.92;;;2.17;;
62071;SDS011;48031;48.542;13.232;2023-09-19T21:58:43;2.10;;;1.90;;
62071;SDS011;48031;48.542;13.232;2023-09-19T22:02:45;1.88;;;1.75;;
62071;SDS011;48031;48.542;13.232;2023-09-19T22:06:48;1.92;;;1.73;;
62071;SDS011;48031;48.542;13.232;2023-09-19T22:10:50;2.63;;;2.05;;
62071;SDS011;48031;48.542;13.232;2023-09-19T22:14:52;2.20;;;2.00;;
62071;SDS011;48031;48.542;13.232;2023-09-19T22:18:54;2.08;;;1.90;;
62071;SDS011;48031;48.542;13.232;2023-09-19T22:22:56;4.00;;;2.00;;
62071;SDS011;48031;48.542;13.232;2023-09-19T22:26:59;3.97;;;1.92;;
62071;SDS011;48031;48.542;13.232;2023-09-19T22:31:02;4.00;;;2.00;;
62071;SDS011;48031;48.542;13.232;2023-09-19T22:35:13;2.20;;;2.00;;
62071;SDS011;48031;48.542;13.232;2023-09-19T22:39:17;1.50;;;1.23;;
62071;SDS011;48031;48.542;13.232;2023-09-19T22:43:27;2.22;;;2.03;;
62071;SDS011;48031;48.542;13.232;2023-09-19T22:47:35;3.45;;;2.28;;
62071;SDS011;48031;48.542;13.232;2023-09-19T22:51:37;2.72;;;2.35;;
62071;SDS011;48031;48.542;13.232;2023-09-19T22:55:47;1.30;;;1.20;;
62071;SDS011;48031;48.542;13.232;2023-09-19T22:59:50;4.47;;;2.88;;
62071;SDS011;48031;48.542;13.232;2023-09-19T23:03:54;2.20;;;1.90;;
62071;SDS011;48031;48.542;13.232;2023-09-19T23:08:12;2.35;;;2.15;;
62071;SDS011;48031;48.542;13.232;2023-09-19T23:12:17;3.83;;;2.13;;
62071;SDS011;48031;48.542;13.232;2023-09-19T23:16:21;2.38;;;2.15;;
62071;SDS011;48031;48.542;13.232;2023-09-19T23:20:31;2.45;;;2.03;;
62071;SDS011;48031;48.542;13.232;2023-09-19T23:24:40;3.42;;;2.22;;
62071;SDS011;48031;48.542;13.232;2023-09-19T23:28:44;2.92;;;2.42;;
62071;SDS011;48031;48.542;13.232;2023-09-19T23:32:50;2.90;;;2.37;;
62071;SDS011;48031;48.542;13.232;2023-09-19T23:36:53;2.40;;;2.00;;
62071;SDS011;48031;48.542;13.232;2023-09-19T23:40:57;2.55;;;1.98;;
62071;SDS011;48031;48.542;13.232;2023-09-19T23:45:00;2.28;;;1.90;;
62071;SDS011;48031;48.542;13.232;2023-09-19T23:49:02;2.55;;;2.35;;
62071;SDS011;48031;48.542;13.232;2023-09-19T23:53:09;3.00;;;2.55;;
62071;SDS011;48031;48.542;13.232;2023-09-19T23:57:13;3.40;;;2.63;;
